MSSS/SAL METAR and TAF weather

Enter ICAO airport designator
Station Type Date Time Source
MSSS METAR 2022/06/28 22:50 UTC NOAA

MSSS 282250Z 20010KT 9999 SCT020 FEW040CB 26/23 Q1015 A2998


Station Type Date Time Source
MSSS Decoded METAR 2022/06/28 22:50 UTC NOAA

San Salvador / Ilopango, El Salvador (MSSS) 13-42N 089-07W 621M
Jun 28, 2022 - 06:50 PM EDT / 2022.06.28 2250 UTC
Wind: from the SSW (200 degrees) at 12 MPH (10 KT):0
Visibility: greater than 7 mile(s):0
Sky conditions: partly cloudy
Weather: Cumulonimbus clouds observed
Temperature: 78 F (26 C)
Dew Point: 73 F (23 C)
Relative Humidity: 83%
Pressure (altimeter): 29.98 in. Hg (1015 hPa)
ob: MSSS 282250Z 20010KT 9999 SCT020 FEW040CB 26/23 Q1015 A2998
cycle: 23

Station Type Date Time Source
MSSS TAF 2022/06/28 18:51 UTC NOAA

TAF MSSS 281525Z 2818/2918 16009KT 9999 SCT023 FEW037CB TX30/2820Z TN20/2912Z PROB30
TEMPO 2901/2903 06007KT 8000 TSRA SCT020 FEW033CB
FM290300 VRB03KT 9999 FEW017 SCT047
FM291600 16008KT 9999 FEW023 FEW040CB

Example: see airport list